createdAt,value
2022-10-17T00:01:12.164Z,7.87
2022-10-17T00:03:41.130Z,7.30
2022-10-17T00:06:10.690Z,7.07
2022-10-17T00:08:41.370Z,7.20
2022-10-17T00:11:13.920Z,7.10
2022-10-17T00:13:42.160Z,7.27
2022-10-17T00:16:11.513Z,7.77
2022-10-17T00:18:39.816Z,7.37
2022-10-17T00:21:08.058Z,7.20
2022-10-17T00:23:36.144Z,7.37
2022-10-17T00:26:07.310Z,7.57
2022-10-17T00:28:35.599Z,8.40
2022-10-17T00:31:05.803Z,6.83
2022-10-17T00:33:34.784Z,8.10
2022-10-17T00:36:07.559Z,7.90
2022-10-17T00:38:37.185Z,8.90
2022-10-17T00:41:07.383Z,7.80
2022-10-17T00:43:51.733Z,7.70
2022-10-17T00:46:20.302Z,7.50
2022-10-17T00:48:50.822Z,7.50
2022-10-17T00:51:22.152Z,7.23
2022-10-17T00:53:51.800Z,7.70
2022-10-17T00:56:22.541Z,7.50
2022-10-17T00:58:50.691Z,7.17
2022-10-17T01:01:19.015Z,7.50
2022-10-17T01:03:47.417Z,7.60
2022-10-17T01:06:15.592Z,8.80
2022-10-17T01:08:44.123Z,8.40
2022-10-17T01:11:30.131Z,7.70
2022-10-17T01:14:03.527Z,7.20
2022-10-17T01:16:40.563Z,7.07
2022-10-17T01:19:32.794Z,6.80
2022-10-17T01:22:03.870Z,7.50
2022-10-17T01:24:49.214Z,7.00
2022-10-17T01:27:43.366Z,8.20
2022-10-17T01:30:43.515Z,7.67
2022-10-17T01:33:18.830Z,8.03
2022-10-17T01:35:53.554Z,7.37
2022-10-17T01:38:26.112Z,7.70
2022-10-17T01:41:01.749Z,7.27
2022-10-17T01:43:38.861Z,7.37
2022-10-17T01:46:14.189Z,8.30
2022-10-17T01:48:46.357Z,7.53
2022-10-17T01:51:19.017Z,8.17
2022-10-17T01:53:54.098Z,8.40
2022-10-17T01:56:26.028Z,8.03
2022-10-17T01:58:58.526Z,8.40
2022-10-17T02:01:30.796Z,7.90
2022-10-17T02:04:02.995Z,8.33
2022-10-17T02:06:35.089Z,7.97
2022-10-17T02:09:16.843Z,8.33
2022-10-17T02:11:51.605Z,8.40
2022-10-17T02:14:29.401Z,8.17
2022-10-17T02:17:09.063Z,7.93
2022-10-17T02:19:47.949Z,8.27
2022-10-17T02:22:26.230Z,8.40
2022-10-17T02:25:01.418Z,8.20
2022-10-17T02:27:37.916Z,7.77
2022-10-17T02:30:13.700Z,8.10
2022-10-17T02:32:49.475Z,7.87
2022-10-17T02:35:23.485Z,7.00
2022-10-17T02:37:53.363Z,7.53
2022-10-17T02:40:25.642Z,8.07
2022-10-17T02:42:56.112Z,7.60
2022-10-17T02:45:27.555Z,8.17
2022-10-17T02:48:01.571Z,8.27
2022-10-17T02:50:39.901Z,8.90
2022-10-17T02:53:14.004Z,9.40
2022-10-17T02:55:46.537Z,8.73
2022-10-17T02:58:20.982Z,8.87
2022-10-17T03:00:49.984Z,8.70
2022-10-17T03:03:26.052Z,7.80
2022-10-17T03:05:55.089Z,8.30
2022-10-17T03:08:26.026Z,8.53
2022-10-17T03:10:54.245Z,7.80
2022-10-17T03:13:23.850Z,9.37
2022-10-17T03:15:52.126Z,10.40
2022-10-17T03:18:20.785Z,10.80
2022-10-17T03:20:52.253Z,11.57
2022-10-17T03:23:21.376Z,11.20
2022-10-17T03:25:49.576Z,9.80
2022-10-17T03:28:18.026Z,9.50
2022-10-17T03:30:46.501Z,11.57
2022-10-17T03:33:15.286Z,9.47
2022-10-17T03:35:43.665Z,9.57
2022-10-17T03:38:13.438Z,9.50
2022-10-17T03:40:41.814Z,9.23
2022-10-17T03:43:11.943Z,8.87
2022-10-17T03:45:41.886Z,9.17
2022-10-17T03:48:10.180Z,8.90
2022-10-17T03:50:38.340Z,9.47
2022-10-17T03:53:06.662Z,9.10
2022-10-17T03:55:36.980Z,9.20
2022-10-17T03:58:05.360Z,9.40
2022-10-17T04:00:33.778Z,9.20
2022-10-17T04:03:02.404Z,9.03
2022-10-17T04:05:30.656Z,8.97
2022-10-17T04:08:01.069Z,9.00
2022-10-17T04:10:53.857Z,9.97
2022-10-17T04:13:22.118Z,9.97
2022-10-17T04:15:56.481Z,9.00
2022-10-17T04:18:25.151Z,9.60
2022-10-17T04:20:53.792Z,9.50
2022-10-17T04:23:23.224Z,8.60
2022-10-17T04:25:58.910Z,9.77
2022-10-17T04:28:28.484Z,9.43
2022-10-17T04:31:01.035Z,10.17
2022-10-17T04:33:36.034Z,9.27
2022-10-17T04:36:06.606Z,9.23
2022-10-17T04:38:38.566Z,9.23
2022-10-17T04:41:09.851Z,9.80
2022-10-17T04:43:39.751Z,8.90
2022-10-17T04:46:10.167Z,9.07
2022-10-17T04:48:39.653Z,9.20
2022-10-17T04:51:11.744Z,9.30
2022-10-17T04:53:48.664Z,13.60
2022-10-17T04:56:20.921Z,11.30
2022-10-17T04:58:51.576Z,10.33
2022-10-17T05:01:21.825Z,10.77
2022-10-17T05:03:53.992Z,11.30
2022-10-17T05:06:25.145Z,10.93
2022-10-17T05:09:12.118Z,9.90
2022-10-17T05:11:43.414Z,9.70
2022-10-17T05:14:12.529Z,9.80
2022-10-17T05:16:40.713Z,9.40
2022-10-17T05:19:09.378Z,10.40
2022-10-17T05:21:43.928Z,10.10
2022-10-17T05:24:14.629Z,10.00
2022-10-17T05:26:44.246Z,9.60
2022-10-17T05:29:13.803Z,9.40
2022-10-17T05:31:47.154Z,9.60
2022-10-17T05:34:15.402Z,10.00
2022-10-17T05:36:44.009Z,12.20
2022-10-17T05:39:14.869Z,10.97
2022-10-17T05:41:45.009Z,9.80
2022-10-17T05:44:13.863Z,9.60
2022-10-17T05:46:46.435Z,9.80
2022-10-17T05:49:25.200Z,10.27
2022-10-17T05:52:00.916Z,10.37
2022-10-17T05:54:32.430Z,9.80
2022-10-17T05:57:02.266Z,9.80
2022-10-17T05:59:33.438Z,9.50
2022-10-17T06:02:08.066Z,10.10
2022-10-17T06:04:36.435Z,9.90
2022-10-17T06:07:04.756Z,10.20
2022-10-17T06:09:34.657Z,10.20
2022-10-17T06:12:05.522Z,11.60
2022-10-17T06:14:33.862Z,10.43
2022-10-17T06:17:04.186Z,10.17
2022-10-17T06:19:32.603Z,11.00
2022-10-17T06:22:00.948Z,11.00
2022-10-17T06:24:30.306Z,10.57
2022-10-17T06:27:09.352Z,10.83
2022-10-17T06:29:41.127Z,12.33
2022-10-17T06:32:14.902Z,11.80
2022-10-17T06:34:47.394Z,12.50
2022-10-17T06:37:16.894Z,11.10
2022-10-17T06:39:46.987Z,12.67
2022-10-17T06:42:21.819Z,16.17
2022-10-17T06:45:11.397Z,13.30
2022-10-17T06:47:46.282Z,12.40
2022-10-17T06:50:42.301Z,12.43
2022-10-17T06:53:18.019Z,11.67
2022-10-17T06:56:14.053Z,13.20
2022-10-17T06:58:51.298Z,15.87
2022-10-17T07:01:31.962Z,11.17
2022-10-17T07:04:02.425Z,11.20
2022-10-17T07:06:32.968Z,11.67
2022-10-17T07:09:07.761Z,10.90
2022-10-17T07:11:38.312Z,10.30
2022-10-17T07:14:07.814Z,10.83
2022-10-17T07:16:36.302Z,15.33
2022-10-17T07:19:20.433Z,10.60
2022-10-17T07:21:49.137Z,11.10
2022-10-17T07:24:17.699Z,10.50
2022-10-17T07:26:54.264Z,10.87
2022-10-17T07:29:24.185Z,11.47
2022-10-17T07:32:06.504Z,11.30
2022-10-17T07:34:35.268Z,11.50
2022-10-17T07:37:03.981Z,21.33
2022-10-17T07:39:32.277Z,11.80
2022-10-17T07:42:00.459Z,11.57
2022-10-17T07:44:30.147Z,10.30
2022-10-17T07:46:58.349Z,9.53
2022-10-17T07:49:26.712Z,11.07
2022-10-17T07:51:54.971Z,11.80
2022-10-17T07:54:23.251Z,9.43
2022-10-17T07:56:51.449Z,12.47
2022-10-17T07:59:20.104Z,10.50
2022-10-17T08:01:50.254Z,9.57
2022-10-17T08:04:18.396Z,10.50
2022-10-17T08:06:46.545Z,10.57
2022-10-17T08:09:14.812Z,11.13
2022-10-17T08:11:43.916Z,9.50
2022-10-17T08:14:13.591Z,9.97
2022-10-17T08:16:42.105Z,9.33
2022-10-17T08:19:13.094Z,9.03
2022-10-17T08:21:41.417Z,9.23
2022-10-17T08:24:10.374Z,8.90
2022-10-17T08:26:42.371Z,8.00
2022-10-17T08:29:16.652Z,7.37
2022-10-17T08:31:48.396Z,7.73
2022-10-17T08:34:27.253Z,8.50
2022-10-17T08:36:55.726Z,7.80
2022-10-17T08:39:24.384Z,8.03
2022-10-17T08:42:05.794Z,6.90
2022-10-17T08:44:44.709Z,10.37
2022-10-17T08:47:17.717Z,8.23
2022-10-17T08:49:52.471Z,8.17
2022-10-17T08:52:29.483Z,10.37
2022-10-17T08:55:00.388Z,7.60
2022-10-17T08:57:29.713Z,7.20
2022-10-17T08:59:58.669Z,7.23
2022-10-17T09:02:44.290Z,6.73
2022-10-17T09:05:36.222Z,6.50
2022-10-17T09:08:14.747Z,6.63
2022-10-17T09:10:53.807Z,5.80
2022-10-17T09:13:43.256Z,6.90
2022-10-17T09:16:37.468Z,6.60
2022-10-17T09:19:12.919Z,6.23
2022-10-17T09:21:53.430Z,6.80
2022-10-17T09:24:26.613Z,6.97
2022-10-17T09:26:57.083Z,6.67
2022-10-17T09:29:32.385Z,6.37
2022-10-17T09:32:05.685Z,6.13
2022-10-17T09:34:34.365Z,6.50
2022-10-17T09:37:04.505Z,6.50
2022-10-17T09:39:33.195Z,6.30
2022-10-17T09:42:02.801Z,7.70
2022-10-17T09:44:33.607Z,6.73
2022-10-17T09:47:17.726Z,6.20
2022-10-17T09:49:47.169Z,6.40
2022-10-17T09:52:19.938Z,6.27
2022-10-17T09:54:50.889Z,6.67
2022-10-17T09:57:20.873Z,6.00
2022-10-17T09:59:56.955Z,6.70
2022-10-17T10:02:26.955Z,5.80
2022-10-17T10:05:05.955Z,5.93
2022-10-17T10:07:38.344Z,7.10
2022-10-17T10:10:09.350Z,7.10
2022-10-17T10:12:40.366Z,6.47
2022-10-17T10:15:34.636Z,6.20
2022-10-17T10:18:06.952Z,6.60
2022-10-17T10:20:37.335Z,6.67
2022-10-17T10:23:15.976Z,6.50
2022-10-17T10:25:58.048Z,6.00
2022-10-17T10:28:29.522Z,6.20
2022-10-17T10:31:02.916Z,6.00
2022-10-17T10:33:33.122Z,6.27
2022-10-17T10:36:03.489Z,6.10
2022-10-17T10:38:35.369Z,6.50
2022-10-17T10:41:05.933Z,7.10
2022-10-17T10:43:37.896Z,6.37
2022-10-17T10:46:17.358Z,6.23
2022-10-17T10:48:52.865Z,7.10
2022-10-17T10:51:35.276Z,6.40
2022-10-17T10:54:11.343Z,6.13
2022-10-17T10:56:43.805Z,6.33
2022-10-17T10:59:19.007Z,6.60
2022-10-17T11:01:55.620Z,6.60
2022-10-17T11:04:35.425Z,6.30
2022-10-17T11:07:10.383Z,7.53
2022-10-17T11:09:54.315Z,6.63
2022-10-17T11:12:30.565Z,6.60
2022-10-17T11:15:04.876Z,7.00
2022-10-17T11:17:40.409Z,6.83
2022-10-17T11:20:16.295Z,6.63
2022-10-17T11:22:47.988Z,6.77
2022-10-17T11:25:29.810Z,7.40
2022-10-17T11:28:02.271Z,7.30
2022-10-17T11:30:48.469Z,8.43
2022-10-17T11:33:26.739Z,8.17
2022-10-17T11:36:01.061Z,9.40
2022-10-17T11:38:39.526Z,10.70
2022-10-17T11:41:12.365Z,10.10
2022-10-17T11:43:47.162Z,8.80
2022-10-17T11:46:23.022Z,9.60
2022-10-17T11:49:08.985Z,9.23
2022-10-17T11:52:01.498Z,10.23
2022-10-17T11:54:36.172Z,9.37
2022-10-17T11:57:20.076Z,9.80
2022-10-17T12:00:03.206Z,10.57
2022-10-17T12:02:37.848Z,11.33
2022-10-17T12:05:17.547Z,11.70
2022-10-17T12:07:53.720Z,12.80
2022-10-17T12:10:35.194Z,11.97
2022-10-17T12:13:36.687Z,12.27
2022-10-17T12:16:40.282Z,13.57
2022-10-17T12:19:30.770Z,13.00
2022-10-17T12:22:20.748Z,11.47
2022-10-17T12:25:02.683Z,11.50
2022-10-17T12:27:42.270Z,11.67
2022-10-17T12:30:22.932Z,11.30
2022-10-17T12:33:07.039Z,13.00
2022-10-17T12:35:37.825Z,14.33
2022-10-17T12:38:29.750Z,13.73
2022-10-17T12:41:06.953Z,12.00
2022-10-17T12:43:53.971Z,14.33
2022-10-17T12:46:58.705Z,13.23
2022-10-17T12:49:45.530Z,13.23
2022-10-17T12:52:23.430Z,12.87
2022-10-17T12:55:14.089Z,13.03
2022-10-17T12:57:49.672Z,13.77
2022-10-17T13:00:22.540Z,17.83
2022-10-17T13:02:55.306Z,13.47
2022-10-17T13:05:29.722Z,13.90
2022-10-17T13:08:00.355Z,12.90
2022-10-17T13:10:30.943Z,15.27
2022-10-17T13:13:10.099Z,15.13
2022-10-17T13:15:38.745Z,14.60
2022-10-17T13:18:07.131Z,15.03
2022-10-17T13:20:36.774Z,14.90
2022-10-17T13:23:05.071Z,15.30
2022-10-17T13:25:35.517Z,14.13
2022-10-17T13:28:13.247Z,16.00
2022-10-17T13:30:48.570Z,16.17
2022-10-17T13:33:36.096Z,14.47
2022-10-17T13:36:08.564Z,15.90
2022-10-17T13:38:40.376Z,15.70
2022-10-17T13:41:34.931Z,16.13
2022-10-17T13:44:08.219Z,16.13
2022-10-17T13:46:39.315Z,39.13
2022-10-17T13:49:17.878Z,16.90
2022-10-17T13:51:49.728Z,15.73
2022-10-17T13:54:37.773Z,16.50
2022-10-17T13:57:07.425Z,16.17
2022-10-17T13:59:40.300Z,16.57
2022-10-17T14:02:15.564Z,16.10
2022-10-17T14:05:15.743Z,17.80
2022-10-17T14:08:05.461Z,17.97
2022-10-17T14:10:28.725Z,16.97
2022-10-17T14:12:57.877Z,15.90
2022-10-17T14:15:30.436Z,15.10
2022-10-17T14:18:05.474Z,15.63
2022-10-17T14:23:37.311Z,15.77
2022-10-17T14:26:14.255Z,14.00
2022-10-17T14:28:45.083Z,13.73
2022-10-17T14:31:25.052Z,12.80
2022-10-17T14:33:54.718Z,12.43
2022-10-17T14:36:32.956Z,13.20
2022-10-17T14:39:03.575Z,12.80
2022-10-17T14:41:42.938Z,12.80
2022-10-17T14:44:21.661Z,13.27
2022-10-17T14:46:53.957Z,13.07
2022-10-17T14:49:38.889Z,12.57
2022-10-17T14:52:27.965Z,11.93
2022-10-17T14:54:59.241Z,13.03
2022-10-17T14:57:40.634Z,14.27
2022-10-17T15:00:11.747Z,14.43
2022-10-17T15:02:39.974Z,14.80
2022-10-17T15:05:12.968Z,14.47
2022-10-17T15:07:41.779Z,15.30
2022-10-17T15:10:31.921Z,15.70
2022-10-17T15:13:27.718Z,16.00
2022-10-17T15:15:51.942Z,15.43
2022-10-17T15:18:20.677Z,14.57
2022-10-17T15:20:55.291Z,13.23
2022-10-17T15:23:33.082Z,13.93
2022-10-17T15:26:02.884Z,12.67
2022-10-17T15:28:31.182Z,11.80
2022-10-17T15:30:59.551Z,12.70
2022-10-17T15:33:27.904Z,12.10
2022-10-17T15:38:24.432Z,12.00
2022-10-17T15:40:52.786Z,12.10
2022-10-17T15:43:22.464Z,11.80
2022-10-17T15:45:50.705Z,12.27
2022-10-17T15:48:30.990Z,12.23
2022-10-17T15:50:59.665Z,11.60
2022-10-17T15:53:28.297Z,13.27
2022-10-17T15:55:56.739Z,13.70
2022-10-17T15:58:28.298Z,11.40
2022-10-17T16:00:56.513Z,12.67
2022-10-17T16:03:24.723Z,14.23
2022-10-17T16:05:53.009Z,12.73
2022-10-17T16:08:21.164Z,13.67
2022-10-17T16:10:49.577Z,14.20
2022-10-17T16:13:20.112Z,15.23
2022-10-17T16:15:49.778Z,14.50
2022-10-17T16:18:18.085Z,15.67
2022-10-17T16:20:46.391Z,16.07
2022-10-17T16:23:15.447Z,15.27
2022-10-17T16:25:43.609Z,14.50
2022-10-17T16:28:12.165Z,14.00
2022-10-17T16:30:46.204Z,14.90
2022-10-17T16:33:15.900Z,14.50
2022-10-17T16:35:45.665Z,16.00
2022-10-17T16:38:13.877Z,15.07
2022-10-17T16:40:42.560Z,15.83
2022-10-17T16:43:13.227Z,17.83
2022-10-17T16:45:41.981Z,15.33
2022-10-17T16:48:10.845Z,16.97
2022-10-17T16:50:41.778Z,16.93
2022-10-17T16:53:10.097Z,15.27
2022-10-17T16:55:38.366Z,16.80
2022-10-17T16:58:06.676Z,16.50
2022-10-17T17:00:34.934Z,17.80
2022-10-17T17:03:03.107Z,17.63
2022-10-17T17:05:31.378Z,18.30
2022-10-17T17:08:03.446Z,19.20
2022-10-17T17:10:31.539Z,18.30
2022-10-17T17:13:01.204Z,17.90
2022-10-17T17:15:29.471Z,14.00
2022-10-17T17:18:00.325Z,13.00
2022-10-17T17:20:30.983Z,12.00
2022-10-17T17:23:00.744Z,9.73
2022-10-17T17:25:29.172Z,7.27
2022-10-17T17:27:57.327Z,7.53
2022-10-17T17:30:25.623Z,5.20
2022-10-17T17:32:53.826Z,6.60
2022-10-17T17:35:22.014Z,5.40
2022-10-17T17:37:50.102Z,4.07
2022-10-17T17:40:19.591Z,4.30
2022-10-17T17:42:47.772Z,4.07
2022-10-17T17:45:16.090Z,4.63
2022-10-17T17:47:44.189Z,4.60
2022-10-17T17:50:12.379Z,4.30
2022-10-17T17:52:42.214Z,4.37
2022-10-17T17:55:11.044Z,7.80
2022-10-17T17:57:40.665Z,6.53
2022-10-17T18:00:09.954Z,5.17
2022-10-17T18:02:42.144Z,5.17
2022-10-17T18:05:12.514Z,4.00
2022-10-17T18:07:40.938Z,4.80
2022-10-17T18:12:45.301Z,5.10
2022-10-17T18:15:14.117Z,4.73
2022-10-17T18:17:42.647Z,4.93
2022-10-17T18:20:11.732Z,5.20
2022-10-17T18:22:40.000Z,5.50
2022-10-17T18:25:08.781Z,5.53
2022-10-17T18:27:37.033Z,5.87
2022-10-17T18:30:08.512Z,6.50
2022-10-17T18:32:36.660Z,6.20
2022-10-17T18:35:04.947Z,6.40
2022-10-17T18:37:38.798Z,7.13
2022-10-17T18:40:08.447Z,10.07
2022-10-17T18:42:36.631Z,19.57
2022-10-17T18:45:07.029Z,16.77
2022-10-17T18:47:35.174Z,11.47
2022-10-17T18:50:03.258Z,9.90
2022-10-17T18:52:31.555Z,8.77
2022-10-17T18:54:59.866Z,6.40
2022-10-17T18:57:28.426Z,6.90
2022-10-17T18:59:56.673Z,6.80
2022-10-17T19:02:26.295Z,7.50
2022-10-17T19:04:54.517Z,6.27
2022-10-17T19:07:22.714Z,8.07
2022-10-17T19:09:50.919Z,6.90
2022-10-17T19:12:19.062Z,7.60
2022-10-17T19:14:47.168Z,7.77
2022-10-17T19:17:15.177Z,6.80
2022-10-17T19:19:44.747Z,7.30
2022-10-17T19:22:12.930Z,6.57
2022-10-17T19:24:41.243Z,6.13
2022-10-17T19:27:09.357Z,7.90
2022-10-17T19:29:37.421Z,5.87
2022-10-17T19:32:12.093Z,6.00
2022-10-17T19:34:45.419Z,5.73
2022-10-17T19:37:14.290Z,5.80
2022-10-17T19:39:42.427Z,6.27
2022-10-17T19:42:10.546Z,5.87
2022-10-17T19:44:38.579Z,6.47
2022-10-17T19:47:06.687Z,6.30
2022-10-17T19:49:34.875Z,6.97
2022-10-17T19:52:04.414Z,6.17
2022-10-17T19:54:32.729Z,6.63
2022-10-17T19:57:00.859Z,6.40
2022-10-17T19:59:28.973Z,8.17
2022-10-17T20:01:57.132Z,9.87
2022-10-17T20:04:25.265Z,8.30
2022-10-17T20:06:54.036Z,6.90
2022-10-17T20:09:25.054Z,7.20
2022-10-17T20:11:53.368Z,6.97
2022-10-17T20:14:21.530Z,7.70
2022-10-17T20:16:53.459Z,8.00
2022-10-17T20:19:21.602Z,7.73
2022-10-17T20:21:49.712Z,7.70
2022-10-17T20:24:18.338Z,8.57
2022-10-17T20:26:47.763Z,8.73
2022-10-17T20:29:17.700Z,9.87
2022-10-17T20:31:47.098Z,9.30
2022-10-17T20:34:17.508Z,8.90
2022-10-17T20:36:46.256Z,8.27
2022-10-17T20:39:16.416Z,9.20
2022-10-17T20:41:48.152Z,8.83
2022-10-17T20:44:17.786Z,8.87
2022-10-17T20:47:00.766Z,8.90
2022-10-17T20:49:30.063Z,8.57
2022-10-17T20:51:58.592Z,8.40
2022-10-17T20:54:27.779Z,8.10
2022-10-17T20:56:58.630Z,9.50
2022-10-17T20:59:30.904Z,9.20
2022-10-17T21:01:59.032Z,10.60
2022-10-17T21:04:45.392Z,10.50
2022-10-17T21:07:14.347Z,11.50
2022-10-17T21:09:42.476Z,11.10
2022-10-17T21:12:10.628Z,13.60
2022-10-17T21:14:39.993Z,13.40
2022-10-17T21:17:08.199Z,13.67
2022-10-17T21:19:36.261Z,14.20
2022-10-17T21:22:04.343Z,13.67
2022-10-17T21:24:32.833Z,16.63
2022-10-17T21:27:01.083Z,15.17
2022-10-17T21:29:29.211Z,16.13
2022-10-17T21:32:01.780Z,17.83
2022-10-17T21:34:29.926Z,17.87
2022-10-17T21:36:58.090Z,17.60
2022-10-17T21:39:26.463Z,18.10
2022-10-17T21:41:54.717Z,18.07
2022-10-17T21:44:24.548Z,17.40
2022-10-17T21:46:53.606Z,18.30
2022-10-17T21:49:25.018Z,18.30
2022-10-17T21:51:53.889Z,19.33
2022-10-17T21:54:23.927Z,19.17
2022-10-17T21:56:52.413Z,20.73
2022-10-17T21:59:20.455Z,19.10
2022-10-17T22:01:48.570Z,18.57
2022-10-17T22:04:18.629Z,21.10
2022-10-17T22:06:51.442Z,20.27
2022-10-17T22:09:21.405Z,20.63
2022-10-17T22:11:52.122Z,21.77
2022-10-17T22:14:22.073Z,20.40
2022-10-17T22:16:50.849Z,21.97
2022-10-17T22:19:22.634Z,21.80
2022-10-17T22:21:52.472Z,21.00
2022-10-17T22:24:22.288Z,22.10
2022-10-17T22:26:50.424Z,22.30
2022-10-17T22:29:18.865Z,24.07
2022-10-17T22:31:47.001Z,25.77
2022-10-17T22:34:17.053Z,25.70
2022-10-17T22:36:45.334Z,25.80
2022-10-17T22:39:14.847Z,25.00
2022-10-17T22:41:43.062Z,25.57
2022-10-17T22:44:11.134Z,26.30
2022-10-17T22:46:39.244Z,27.37
2022-10-17T22:49:07.295Z,27.70
2022-10-17T22:51:35.279Z,27.70
2022-10-17T22:54:03.379Z,28.03
2022-10-17T22:56:32.830Z,28.00
2022-10-17T22:59:00.988Z,26.83
2022-10-17T23:01:29.148Z,26.90
2022-10-17T23:03:57.299Z,27.43
2022-10-17T23:06:25.509Z,28.03
2022-10-17T23:08:53.629Z,27.67
2022-10-17T23:11:21.861Z,26.37
2022-10-17T23:13:51.440Z,29.10
2022-10-17T23:16:19.543Z,28.63
2022-10-17T23:18:47.640Z,30.90
2022-10-17T23:21:15.719Z,30.87
2022-10-17T23:23:43.790Z,29.33
2022-10-17T23:26:13.639Z,29.60
2022-10-17T23:28:42.661Z,29.73
2022-10-17T23:31:17.160Z,29.00
2022-10-17T23:33:46.839Z,28.90
2022-10-17T23:36:18.414Z,30.10
2022-10-17T23:38:47.323Z,28.17
2022-10-17T23:41:16.341Z,31.23
2022-10-17T23:43:44.905Z,29.03
2022-10-17T23:46:13.531Z,27.50
2022-10-17T23:48:43.008Z,29.43
2022-10-17T23:51:11.776Z,31.97
2022-10-17T23:53:40.749Z,31.57
2022-10-17T23:56:10.398Z,29.73
2022-10-17T23:58:38.615Z,29.40
